M I D A S
Marine Information and Data Acquisition System
Tripno 487 of the Zeeleeuw from 2003-04-08 07:50:36 to 2003-04-08 14:24:24
Back to CruiseResearch ActivitiesStationsMapUnderway DataData graphs

EquipmentUnitsComments
TimeDGPSUTC
LatitudeDGPSDM.mWGS84
LongitudeDGPSDM.mWGS84
SpeedMeteo Stationm/sRelative wind speed
DirectionMeteo StationdegRelative wind direction
TemperatureMeteo Stationdeg CelciusAir temperature
PressureMeteo StationPaAtmospheric pressure
HumidityMeteo Station%Relative humidity
Missing or incorrect values are displayed as -999
Metereological data collected by the RV Zeeleeuw from 2003-04-08 07:50:36 to 2003-04-08 14:24:24
Time Latitude Longitude Speed Direction Temperature Pressure Humidity
2003-04-08 07:51 51°13.601 2°56.096 1.8 53 3.5 102580 49
2003-04-08 07:52 51°13.619 2°56.012 1.3 85 3.4 102590 49
2003-04-08 07:53 51°13.65 2°55.884 1.3 108 3.4 102580 49
2003-04-08 07:54 51°13.677 2°55.778 2.8 80 3.3 102580 49
2003-04-08 07:55 51°13.69 2°55.766 3.5 312 3.3 102580 48
2003-04-08 07:56 51°13.718 2°55.773 2.4 237 3.1 102580 49
2003-04-08 07:57 51°13.707 2°55.77 2.4 237 3 102580 49
2003-04-08 07:58 51°13.767 2°55.703 1.9 308 3 102580 49
2003-04-08 07:59 51°13.865 2°55.607 4.2 329 2.9 102580 50
2003-04-08 08:00 51°13.98 2°55.521 3.4 321 2.8 102580 51
2003-04-08 08:01 51°14.097 2°55.439 4.9 300 2.8 102580 50
2003-04-08 08:02 51°14.212 2°55.333 1.9 287 2.7 102580 50
2003-04-08 08:03 51°14.301 2°55.185 2.5 319 2.7 102590 51
2003-04-08 08:04 51°14.377 2°55.013 2.3 334 2.8 102590 51
2003-04-08 08:05 51°14.4 2°54.804 1.5 349 2.8 102590 53
2003-04-08 08:06 51°14.392 2°54.597 0.8 31 2.9 102590 51
2003-04-08 08:07 51°14.37 2°54.452 1 86 3.1 102590 53
2003-04-08 08:08 51°14.348 2°54.337 1 108 3.4 102590 53
2003-04-08 08:09 51°14.322 2°54.24 1.4 106 3.6 102600 51
2003-04-08 08:10 51°14.294 2°54.159 1.9 101 3.6 102590 50
2003-04-08 08:11 51°14.253 2°54.026 2.8 37 3.7 102600 52
2003-04-08 08:12 51°14.166 2°53.739 3.7 8 3.7 102590 48
2003-04-08 08:13 51°14.072 2°53.417 4.2 7 3.6 102590 49
2003-04-08 08:14 51°13.974 2°53.09 4.3 356 3.5 102590 49
2003-04-08 08:15 51°13.866 2°52.776 4.3 15 3.4 102590 47
2003-04-08 08:16 51°13.756 2°52.456 3.9 356 3.3 102590 48
2003-04-08 08:17 51°13.646 2°52.139 4.9 354 3.3 102580 50
2003-04-08 08:18 51°13.539 2°51.829 4.8 9 3.3 102580 49
2003-04-08 08:19 51°13.429 2°51.504 4.1 4 3.3 102590 49
2003-04-08 08:20 51°13.316 2°51.177 5.1 357 3.3 102590 48
2003-04-08 08:21 51°13.2 2°50.84 5.2 358 3.2 102580 48
2003-04-08 08:22 51°13.081 2°50.49 5.1 346 3.2 102590 47
2003-04-08 08:23 51°12.966 2°50.143 4.8 355 3.3 102590 48
2003-04-08 08:24 51°12.852 2°49.802 6.1 358 3.3 102590 49
2003-04-08 08:25 51°12.735 2°49.457 6.2 6 3.2 102570 52
2003-04-08 08:26 51°12.619 2°49.108 5.8 1 3.2 102590 51
2003-04-08 08:27 51°12.501 2°48.753 6.4 2 3.2 102580 52
2003-04-08 08:28 51°12.387 2°48.411 6.6 352 3.2 102580 51
2003-04-08 08:29 51°12.271 2°48.065 6.9 359 3.4 102580 51
2003-04-08 08:30 51°12.156 2°47.718 6.8 356 3.2 102580 49
2003-04-08 08:31 51°12.038 2°47.364 6.3 1 3.2 102580 49
2003-04-08 08:32 51°11.921 2°47.015 5.7 358 3.2 102570 49
2003-04-08 08:33 51°11.809 2°46.671 5.6 353 3.2 102580 50
2003-04-08 08:34 51°11.695 2°46.313 6.6 352 3.2 102580 48
2003-04-08 08:35 51°11.595 2°45.951 6.1 358 3.2 102580 51
2003-04-08 08:36 51°11.498 2°45.596 5.4 3 3.1 102580 51
2003-04-08 08:37 51°11.398 2°45.235 5.3 358 3.2 102580 52
2003-04-08 08:38 51°11.297 2°44.868 5.9 357 3.1 102580 52
2003-04-08 08:39 51°11.207 2°44.504 5.5 357 3.1 102580 50
2003-04-08 08:40 51°11.119 2°44.127 5.2 350 3.2 102580 50
2003-04-08 08:41 51°11.031 2°43.756 5.3 349 3.2 102590 49
2003-04-08 08:42 51°10.944 2°43.393 5.4 352 3.2 102590 52
2003-04-08 08:43 51°10.857 2°43.021 5.8 345 3.2 102590 51
2003-04-08 08:44 51°10.77 2°42.643 5.3 347 3.2 102590 52
2003-04-08 08:45 51°10.722 2°42.252 5.8 348 3.2 102590 49
2003-04-08 08:46 51°10.683 2°41.858 5.8 348 3.2 102590 50
2003-04-08 08:47 51°10.629 2°41.476 5.3 355 3.2 102590 50
2003-04-08 08:48 51°10.552 2°41.097 6 351 3.3 102590 51
2003-04-08 08:49 51°10.474 2°40.711 5.8 357 3.3 102590 50
2003-04-08 08:50 51°10.384 2°40.337 5.6 355 3.2 102580 51
2003-04-08 08:51 51°10.294 2°39.974 4.9 353 3.2 102590 51
2003-04-08 08:52 51°10.202 2°39.599 5.5 359 3.3 102580 49
2003-04-08 08:53 51°10.113 2°39.232 5.2 356 3.3 102590 50
2003-04-08 08:54 51°10.022 2°38.859 5.3 352 3.3 102590 51
2003-04-08 08:55 51°9.93 2°38.48 5.1 345 3.3 102590 50
2003-04-08 08:56 51°9.834 2°38.121 5.4 6 3.3 102590 49
2003-04-08 08:57 51°9.734 2°37.757 5.5 351 3.4 102590 52
2003-04-08 08:58 51°9.635 2°37.396 5.6 346 3.3 102590 53
2003-04-08 08:59 51°9.532 2°37.027 6.4 356 3.3 102590 52
2003-04-08 09:00 51°9.432 2°36.659 5.1 354 3.3 102590 51
2003-04-08 09:01 51°9.335 2°36.296 4.6 353 3.4 102590 52
2003-04-08 09:02 51°9.235 2°35.926 6.1 359 3.4 102590 53
2003-04-08 09:03 51°9.132 2°35.549 5.4 351 3.4 102590 52
2003-04-08 09:04 51°9.034 2°35.182 5.5 351 3.4 102590 51
2003-04-08 09:05 51°8.93 2°34.804 5.3 353 3.5 102590 53
2003-04-08 09:06 51°8.829 2°34.436 5 338 3.4 102590 51
2003-04-08 09:07 51°8.723 2°34.057 5.3 351 3.4 102590 49
2003-04-08 09:08 51°8.621 2°33.692 4.4 348 3.5 102590 50
2003-04-08 09:09 51°8.542 2°33.368 2.4 334 3.5 102590 51
2003-04-08 09:10 51°8.544 2°33.173 1.6 305 3.5 102590 50
2003-04-08 09:11 51°8.584 2°33.068 3.2 310 3.4 102590 50
2003-04-08 09:12 51°8.629 2°33.048 3.8 348 3.3 102590 52
2003-04-08 09:13 51°8.643 2°33.076 3.5 16 3.4 102580 52
2003-04-08 09:14 51°8.637 2°33.057 3.1 31 3.6 102580 51
2003-04-08 09:15 51°8.63 2°33.024 2.7 41 3.8 102580 51
2003-04-08 09:16 51°8.62 2°32.991 2.2 52 4 102570 50
2003-04-08 09:17 51°8.608 2°32.957 2 46 4.1 102580 49
2003-04-08 09:18 51°8.595 2°32.924 3.3 69 4.1 102580 49
2003-04-08 09:19 51°8.582 2°32.89 3 78 4.1 102580 49
2003-04-08 09:20 51°8.566 2°32.857 2.6 85 4 102580 48
2003-04-08 09:21 51°8.548 2°32.827 2.7 76 3.9 102580 48
2003-04-08 09:22 51°8.533 2°32.795 3 62 3.8 102590 49
2003-04-08 09:23 51°8.519 2°32.765 3.1 55 3.9 102580 50
2003-04-08 09:24 51°8.498 2°32.742 2.8 57 4 102580 48
2003-04-08 09:25 51°8.472 2°32.73 2.9 50 4.1 102580 52
2003-04-08 09:26 51°8.449 2°32.725 3.4 43 4.2 102580 53
2003-04-08 09:27 51°8.426 2°32.733 3.6 27 4.3 102580 49
2003-04-08 09:28 51°8.413 2°32.77 3.6 14 4.4 102580 48
2003-04-08 09:29 51°8.406 2°32.819 5.4 28 4.3 102580 49
2003-04-08 09:30 51°8.397 2°32.869 4.2 3 4.3 102570 48
2003-04-08 09:31 51°8.412 2°32.919 3.9 359 4.2 102580 49
2003-04-08 09:32 51°8.422 2°32.981 5.1 9 4.1 102580 50
2003-04-08 09:33 51°8.431 2°33.045 4.1 13 4 102580 49
2003-04-08 09:34 51°8.444 2°33.097 3.3 4 4.1 102580 50
2003-04-08 09:35 51°8.457 2°33.144 4.5 12 4 102570 49
2003-04-08 09:36 51°8.47 2°33.194 4.6 2 4 102580 49
2003-04-08 09:37 51°8.473 2°33.243 5.1 13 4 102580 49
2003-04-08 09:38 51°8.479 2°33.292 4.5 8 4.1 102580 52
2003-04-08 09:39 51°8.489 2°33.338 4.6 357 4.1 102580 51
2003-04-08 09:40 51°8.506 2°33.379 3.6 2 4.1 102580 50
2003-04-08 09:41 51°8.531 2°33.413 5 357 4.2 102570 50
2003-04-08 09:42 51°8.55 2°33.452 4 13 4.2 102570 49
2003-04-08 09:43 51°8.563 2°33.497 4.2 15 4.2 102570 51
2003-04-08 09:44 51°8.58 2°33.537 5 349 4.3 102570 52
2003-04-08 09:45 51°8.602 2°33.573 4.5 2 4.2 102570 49
2003-04-08 09:46 51°8.624 2°33.611 5.4 12 4.3 102570 52
2003-04-08 09:47 51°8.634 2°33.656 4.7 22 4.3 102570 53
2003-04-08 09:48 51°8.635 2°33.703 6 17 4.4 102570 51
2003-04-08 09:49 51°8.64 2°33.753 4.6 20 4.4 102570 50
2003-04-08 09:50 51°8.643 2°33.8 5.3 25 4.5 102560 49
2003-04-08 09:51 51°8.646 2°33.847 4.6 21 4.5 102570 50
2003-04-08 09:52 51°8.657 2°33.887 4.9 13 4.5 102560 50
2003-04-08 09:53 51°8.675 2°33.921 5.6 6 4.5 102560 49
2003-04-08 09:54 51°8.698 2°33.95 5.4 356 4.4 102560 50
2003-04-08 09:55 51°8.721 2°33.98 6.1 16 4.3 102570 51
2003-04-08 09:56 51°8.734 2°34.02 5.5 23 4.4 102560 51
2003-04-08 09:57 51°8.747 2°34.065 6.5 26 4.4 102560 50
2003-04-08 09:58 51°8.76 2°34.104 3.3 1 4.5 102570 53
2003-04-08 09:59 51°8.778 2°34.14 6.4 17 4.4 102560 49
2003-04-08 10:00 51°8.795 2°34.179 6.1 17 4.4 102560 47
2003-04-08 10:01 51°8.806 2°34.217 5.5 15 4.4 102560 49
2003-04-08 10:02 51°8.818 2°34.253 5.7 4 4.4 102560 51
2003-04-08 10:03 51°8.839 2°34.287 6.3 3 4.5 102560 53
2003-04-08 10:04 51°8.856 2°34.324 5.3 20 4.5 102560 51
2003-04-08 10:05 51°8.867 2°34.368 5.6 17 4.5 102550 53
2003-04-08 10:06 51°8.865 2°34.41 6 35 4.5 102560 50
2003-04-08 10:07 51°8.855 2°34.44 6.3 35 4.5 102550 49
2003-04-08 10:08 51°8.843 2°34.461 6.1 47 4.6 102560 53
2003-04-08 10:09 51°8.82 2°34.476 4.7 69 4.6 102560 50
2003-04-08 10:10 51°8.779 2°34.471 4.9 88 4.4 102560 53
2003-04-08 10:11 51°8.738 2°34.453 4.6 97 4.5 102560 52
2003-04-08 10:12 51°8.702 2°34.432 3.2 102 4.4 102550 54
2003-04-08 10:13 51°8.673 2°34.409 2.9 107 4.3 102550 52
2003-04-08 10:14 51°8.642 2°34.38 5.1 99 4.2 102550 55
2003-04-08 10:15 51°8.618 2°34.35 5 100 4.2 102550 56
2003-04-08 10:16 51°8.59 2°34.317 4.4 101 4.2 102550 52
2003-04-08 10:17 51°8.564 2°34.282 4 103 4.2 102550 57
2003-04-08 10:18 51°8.542 2°34.248 3.2 108 4.1 102550 55
2003-04-08 10:19 51°8.503 2°34.211 4 137 4.1 102550 52
2003-04-08 10:20 51°8.46 2°34.139 4.2 210 4.2 102550 52
2003-04-08 10:21 51°8.444 2°34.035 5.6 256 4.2 102550 54
2003-04-08 10:22 51°8.458 2°33.948 5.3 295 4.2 102550 51
2003-04-08 10:23 51°8.488 2°33.891 6.2 328 4.2 102540 53
2003-04-08 10:24 51°8.525 2°33.861 6.2 339 4.2 102540 54
2003-04-08 10:25 51°8.568 2°33.841 6.4 342 4.2 102530 54
2003-04-08 10:26 51°8.602 2°33.828 7 348 4.3 102540 53
2003-04-08 10:27 51°8.629 2°33.821 7.1 348 4.3 102530 49
2003-04-08 10:28 51°8.647 2°33.815 6.2 345 4.3 102540 51
2003-04-08 10:29 51°8.668 2°33.806 6.9 346 4.4 102530 51
2003-04-08 10:30 51°8.687 2°33.798 5.8 2 4.3 102530 50
2003-04-08 10:31 51°8.7 2°33.794 6.8 356 4.4 102540 52
2003-04-08 10:32 51°8.707 2°33.793 5.9 21 4.5 102540 54
2003-04-08 10:33 51°8.705 2°33.788 5.7 23 4.6 102530 55
2003-04-08 10:34 51°8.7 2°33.778 6.3 22 4.7 102530 55
2003-04-08 10:35 51°8.688 2°33.75 6.3 133 4.7 102530 49
2003-04-08 10:36 51°8.672 2°33.707 6.4 63 4.7 102530 48
2003-04-08 10:37 51°8.658 2°33.663 6.6 89 4.7 102530 52
2003-04-08 10:38 51°8.641 2°33.62 5 101 4.6 102530 51
2003-04-08 10:39 51°8.625 2°33.578 4.4 107 4.5 102530 52
2003-04-08 10:40 51°8.606 2°33.536 4.9 113 4.5 102530 50
2003-04-08 10:41 51°8.587 2°33.498 4.7 101 4.5 102530 54
2003-04-08 10:42 51°8.568 2°33.461 7.9 99 4.4 102530 54
2003-04-08 10:43 51°8.548 2°33.426 6.5 100 4.5 102530 56
2003-04-08 10:44 51°8.529 2°33.393 7.5 83 4.5 102530 53
2003-04-08 10:45 51°8.51 2°33.36 5.1 89 4.5 102520 55
2003-04-08 10:46 51°8.489 2°33.328 6.3 74 4.6 102520 54
2003-04-08 10:47 51°8.471 2°33.297 7.1 84 4.6 102520 50
2003-04-08 10:48 51°8.451 2°33.267 6.5 71 4.5 102520 49
2003-04-08 10:49 51°8.43 2°33.253 7.4 46 4.6 102510 52
2003-04-08 10:50 51°8.413 2°33.248 6.9 36 4.8 102510 49
2003-04-08 10:51 51°8.406 2°33.245 6.6 11 4.9 102510 52
2003-04-08 10:52 51°8.408 2°33.241 7.2 350 5 102510 53
2003-04-08 10:53 51°8.421 2°33.228 6.7 338 4.9 102510 47
2003-04-08 10:54 51°8.443 2°33.203 7.2 323 4.7 102510 47
2003-04-08 10:55 51°8.469 2°33.17 7.7 316 4.5 102510 51
2003-04-08 10:56 51°8.498 2°33.134 7.7 329 4.5 102500 51
2003-04-08 10:57 51°8.529 2°33.094 7 305 4.4 102500 56
2003-04-08 10:58 51°8.559 2°33.045 7.7 319 4.3 102510 53
2003-04-08 10:59 51°8.589 2°32.995 7.8 311 4.3 102500 48
2003-04-08 11:00 51°8.621 2°32.944 6.7 307 4.3 102500 47
2003-04-08 11:01 51°8.65 2°32.893 7 307 4.3 102500 47
2003-04-08 11:02 51°8.676 2°32.843 6.8 320 4.3 102500 51
2003-04-08 11:03 51°8.699 2°32.799 7.4 326 4.3 102490 51
2003-04-08 11:04 51°8.719 2°32.755 6.9 329 4.2 102490 46
2003-04-08 11:05 51°8.736 2°32.72 7.3 334 4.2 102490 44
2003-04-08 11:06 51°8.749 2°32.688 6.2 339 4.4 102490 49
2003-04-08 11:07 51°8.759 2°32.665 5.8 348 4.5 102490 50
2003-04-08 11:08 51°8.766 2°32.651 7.4 16 4.5 102490 49
2003-04-08 11:09 51°8.769 2°32.645 6.4 17 4.6 102490 49
2003-04-08 11:10 51°8.757 2°32.645 5.9 45 4.7 102480 51
2003-04-08 11:11 51°8.739 2°32.65 8.3 52 4.8 102490 51
2003-04-08 11:12 51°8.715 2°32.655 7.7 60 4.7 102490 49
2003-04-08 11:13 51°8.688 2°32.66 6.6 52 4.7 102480 43
2003-04-08 11:14 51°8.667 2°32.665 7.1 317 4.9 102480 48
2003-04-08 11:15 51°8.647 2°32.664 6.1 40 4.9 102480 48
2003-04-08 11:16 51°8.632 2°32.65 8.1 316 5 102480 49
2003-04-08 11:17 51°8.617 2°32.627 6.7 50 5 102480 48
2003-04-08 11:18 51°8.598 2°32.603 7.3 41 5 102480 49
2003-04-08 11:19 51°8.58 2°32.57 5.8 44 5 102480 43
2003-04-08 11:20 51°8.562 2°32.54 7 65 5 102480 46
2003-04-08 11:21 51°8.542 2°32.509 6.5 317 4.9 102480 52
2003-04-08 11:22 51°8.521 2°32.483 6.6 68 4.9 102480 46
2003-04-08 11:23 51°8.501 2°32.458 7.3 62 4.9 102490 49
2003-04-08 11:24 51°8.479 2°32.431 6.5 59 4.9 102480 43
2003-04-08 11:25 51°8.459 2°32.401 7.5 60 4.9 102480 46
2003-04-08 11:26 51°8.44 2°32.368 6.7 67 4.8 102480 45
2003-04-08 11:27 51°8.421 2°32.34 7.1 61 4.8 102480 44
2003-04-08 11:28 51°8.398 2°32.306 6.2 75 4.9 102480 50
2003-04-08 11:29 51°8.377 2°32.273 6.6 60 5 102480 54
2003-04-08 11:30 51°8.358 2°32.24 7.2 68 5 102480 45
2003-04-08 11:31 51°8.335 2°32.207 7 67 4.9 102480 41
2003-04-08 11:32 51°8.314 2°32.175 7.2 62 4.9 102470 47
2003-04-08 11:33 51°8.298 2°32.142 6.9 70 4.9 102460 44
2003-04-08 11:34 51°8.278 2°32.112 6.1 71 5 102470 46
2003-04-08 11:35 51°8.256 2°32.079 6.6 63 5 102460 47
2003-04-08 11:36 51°8.237 2°32.049 6.2 63 4.9 102470 41
2003-04-08 11:37 51°8.218 2°32.02 7.5 66 4.9 102460 44
2003-04-08 11:38 51°8.198 2°31.988 7.8 64 4.9 102460 50
2003-04-08 11:39 51°8.177 2°31.956 6.7 58 4.8 102460 42
2003-04-08 11:40 51°8.156 2°31.923 6.9 58 4.9 102470 46
2003-04-08 11:41 51°8.137 2°31.892 7.5 62 4.9 102460 46
2003-04-08 11:42 51°8.121 2°31.858 7.5 60 4.9 102460 50
2003-04-08 11:43 51°8.102 2°31.828 7.3 55 4.9 102460 43
2003-04-08 11:44 51°8.08 2°31.8 7.1 46 5 102460 45
2003-04-08 11:45 51°8.078 2°31.852 10.8 12 5.1 102440 44
2003-04-08 11:46 51°8.144 2°32.082 12.6 7 5 102440 44
2003-04-08 11:47 51°8.239 2°32.368 13.2 7 5 102430 45
2003-04-08 11:48 51°8.337 2°32.658 13.5 10 5 102430 44
2003-04-08 11:49 51°8.428 2°32.944 13.3 11 5.1 102430 46
2003-04-08 11:50 51°8.523 2°33.234 13.7 7 5 102420 44
2003-04-08 11:51 51°8.618 2°33.522 13.6 6 5.1 102430 44
2003-04-08 11:52 51°8.712 2°33.807 13.5 4 5 102410 41
2003-04-08 11:53 51°8.809 2°34.099 13.5 6 5 102420 46
2003-04-08 11:54 51°8.894 2°34.389 14.1 10 5 102420 41
2003-04-08 11:55 51°8.982 2°34.677 13.7 2 5 102420 42
2003-04-08 11:56 51°9.068 2°34.966 13 10 4.9 102420 38
2003-04-08 11:57 51°9.157 2°35.259 12.5 10 5 102420 41
2003-04-08 11:58 51°9.247 2°35.552 13.9 5 5 102410 45
2003-04-08 11:59 51°9.334 2°35.843 14.1 11 5 102410 43
2003-04-08 12:00 51°9.421 2°36.134 13 6 5 102410 47
2003-04-08 12:01 51°9.522 2°36.402 11.9 356 5 102410 43
2003-04-08 12:02 51°9.601 2°36.486 8 356 5 102410 43
2003-04-08 12:03 51°9.626 2°36.515 8.1 17 5 102430 45
2003-04-08 12:04 51°9.631 2°36.531 7.1 5 5 102430 41
2003-04-08 12:05 51°9.641 2°36.548 7.4 3 5 102420 42
2003-04-08 12:06 51°9.662 2°36.571 8.2 1 5.1 102420 43
2003-04-08 12:07 51°9.683 2°36.624 8.6 22 5.2 102410 44
2003-04-08 12:08 51°9.692 2°36.694 9 19 5.1 102420 44
2003-04-08 12:09 51°9.707 2°36.752 9.7 15 5.2 102420 44
2003-04-08 12:10 51°9.727 2°36.797 7.4 10 5.2 102430 41
2003-04-08 12:11 51°9.744 2°36.842 7.9 21 5.2 102420 41
2003-04-08 12:12 51°9.753 2°36.884 8 9 5.2 102420 44
2003-04-08 12:13 51°9.761 2°36.923 8.6 16 5.2 102420 40
2003-04-08 12:14 51°9.771 2°36.966 8.5 20 5.2 102410 40
2003-04-08 12:15 51°9.779 2°37.001 8.6 9 5.1 102410 43
2003-04-08 12:16 51°9.786 2°37.04 7.2 9 5.2 102420 43
2003-04-08 12:17 51°9.798 2°37.076 7.3 7 5.2 102410 41
2003-04-08 12:18 51°9.809 2°37.113 7.9 12 5.2 102420 46
2003-04-08 12:19 51°9.821 2°37.149 7.6 9 5.2 102410 43
2003-04-08 12:20 51°9.839 2°37.181 7.7 1 5.2 102410 41
2003-04-08 12:21 51°9.859 2°37.21 8 8 5.1 102410 44
2003-04-08 12:22 51°9.876 2°37.243 7.7 6 5.1 102400 41
2003-04-08 12:23 51°9.89 2°37.283 7.4 11 5.1 102400 38
2003-04-08 12:24 51°9.904 2°37.319 7.1 18 5.2 102410 38
2003-04-08 12:25 51°9.923 2°37.353 8.3 9 5.2 102410 41
2003-04-08 12:26 51°9.936 2°37.389 7.2 23 5.2 102400 40
2003-04-08 12:27 51°9.946 2°37.432 8.7 15 5.3 102400 46
2003-04-08 12:28 51°9.961 2°37.47 7.5 3 5.3 102410 43
2003-04-08 12:29 51°9.985 2°37.504 7.9 6 5.1 102400 40
2003-04-08 12:30 51°10.003 2°37.541 8.1 14 5.2 102400 40
2003-04-08 12:31 51°10.02 2°37.578 8 4 5.2 102400 38
2003-04-08 12:32 51°10.039 2°37.612 7.8 9 5.2 102400 37
2003-04-08 12:33 51°10.061 2°37.65 8.5 3 5.2 102400 36
2003-04-08 12:34 51°10.08 2°37.686 8.5 5 5.3 102400 42
2003-04-08 12:35 51°10.097 2°37.725 7 5 5.3 102400 37
2003-04-08 12:36 51°10.113 2°37.769 7.7 17 5.3 102400 41
2003-04-08 12:37 51°10.122 2°37.816 8 14 5.4 102390 39
2003-04-08 12:38 51°10.132 2°37.861 6.9 4 5.3 102390 38
2003-04-08 12:39 51°10.146 2°37.906 7.6 15 5.3 102380 37
2003-04-08 12:40 51°10.148 2°37.946 6.9 34 5.3 102380 37
2003-04-08 12:41 51°10.143 2°37.978 6.4 31 5.3 102380 41
2003-04-08 12:42 51°10.133 2°38.01 7 41 5.3 102380 42
2003-04-08 12:43 51°10.119 2°38.056 9 29 5.3 102370 39
2003-04-08 12:44 51°10.118 2°38.148 7.2 36 5.3 102360 40
2003-04-08 12:45 51°10.122 2°38.197 7.5 21 5.3 102370 40
2003-04-08 12:46 51°10.117 2°38.212 7.3 41 5.3 102380 41
2003-04-08 12:47 51°10.109 2°38.209 7.6 44 5.3 102370 43
2003-04-08 12:48 51°10.095 2°38.199 6.1 317 5.3 102370 40
2003-04-08 12:49 51°10.082 2°38.189 6.2 53 5.3 102380 47
2003-04-08 12:50 51°10.069 2°38.181 6.5 55 5.3 102370 40
2003-04-08 12:51 51°10.056 2°38.168 7.3 56 5.3 102370 45
2003-04-08 12:52 51°10.042 2°38.156 7.3 60 5.2 102370 41
2003-04-08 12:53 51°10.028 2°38.143 6.3 57 5.1 102360 44
2003-04-08 12:54 51°10.014 2°38.13 6.3 58 5.1 102370 48
2003-04-08 12:55 51°10 2°38.121 6.7 49 5.2 102360 47
2003-04-08 12:56 51°9.985 2°38.106 7.5 57 5.3 102360 47
2003-04-08 12:57 51°9.967 2°38.092 7.4 52 5.3 102360 46
2003-04-08 12:58 51°9.951 2°38.088 8.5 68 5.3 102370 43
2003-04-08 12:59 51°9.932 2°38.083 8.2 56 5.2 102370 41
2003-04-08 13:00 51°9.92 2°38.088 6.8 56 5.2 102370 44
2003-04-08 13:01 51°9.905 2°38.09 6.7 55 5.2 102370 45
2003-04-08 13:02 51°9.893 2°38.099 7.2 45 5.2 102370 43
2003-04-08 13:03 51°9.879 2°38.096 7.3 45 5.3 102370 46
2003-04-08 13:04 51°9.864 2°38.091 7.6 57 5.3 102370 40
2003-04-08 13:05 51°9.852 2°38.088 5.7 61 5.2 102360 41
2003-04-08 13:06 51°9.842 2°38.085 7.4 64 5.2 102350 46
2003-04-08 13:07 51°9.83 2°38.081 6.2 68 5.2 102350 40
2003-04-08 13:08 51°9.814 2°38.069 7.3 60 5.2 102350 45
2003-04-08 13:09 51°9.798 2°38.058 8.1 70 5.3 102350 43
2003-04-08 13:10 51°9.786 2°38.052 6.6 72 5.2 102350 41
2003-04-08 13:11 51°9.772 2°38.046 7.5 55 5.2 102350 42
2003-04-08 13:12 51°9.758 2°38.038 7 67 5.3 102340 40
2003-04-08 13:13 51°9.748 2°38.035 7 65 5.2 102350 41
2003-04-08 13:14 51°9.731 2°38.025 7.8 60 5.2 102350 40
2003-04-08 13:15 51°9.721 2°38.024 6.8 67 5.2 102340 45
2003-04-08 13:16 51°9.706 2°38.015 6.9 59 5.2 102350 41
2003-04-08 13:17 51°9.69 2°38.004 6.4 63 5.3 102340 45
2003-04-08 13:18 51°9.675 2°37.998 7.8 60 5.3 102350 40
2003-04-08 13:19 51°9.663 2°37.993 6.9 56 5.3 102340 46
2003-04-08 13:20 51°9.65 2°37.988 7.5 59 5.3 102340 41
2003-04-08 13:21 51°9.637 2°37.982 7.4 59 5.3 102340 42
2003-04-08 13:22 51°9.625 2°37.977 6.7 66 5.3 102340 47
2003-04-08 13:23 51°9.612 2°37.979 7.5 68 5.3 102340 42
2003-04-08 13:24 51°9.597 2°37.974 6 85 5.3 102330 43
2003-04-08 13:25 51°9.584 2°37.971 7.7 70 5.3 102340 43
2003-04-08 13:26 51°9.571 2°37.971 9 73 5.2 102330 40
2003-04-08 13:27 51°9.557 2°37.975 7.3 51 5.2 102340 42
2003-04-08 13:28 51°9.551 2°38.018 9.5 16 5.3 102330 41
2003-04-08 13:29 51°9.617 2°38.128 12.6 356 5.4 102330 38
2003-04-08 13:30 51°9.75 2°38.31 15 348 5.4 102320 45
2003-04-08 13:31 51°9.891 2°38.57 15 3 5.4 102310 48
2003-04-08 13:32 51°9.978 2°38.893 13.9 18 5.4 102300 46
2003-04-08 13:33 51°10.046 2°39.235 14.5 7 5.4 102300 44
2003-04-08 13:34 51°10.113 2°39.569 14.2 11 5.5 102300 44
2003-04-08 13:35 51°10.197 2°39.902 14.5 8 5.5 102300 46
2003-04-08 13:36 51°10.29 2°40.235 15.1 10 5.5 102300 42
2003-04-08 13:37 51°10.382 2°40.556 14.6 4 5.5 102300 44
2003-04-08 13:38 51°10.476 2°40.883 15.8 11 5.4 102300 43
2003-04-08 13:39 51°10.57 2°41.214 15 7 5.4 102300 42
2003-04-08 13:40 51°10.665 2°41.551 14.8 5 5.3 102300 45
2003-04-08 13:41 51°10.756 2°41.878 15.7 9 5.4 102300 46
2003-04-08 13:42 51°10.85 2°42.21 13.8 12 5.3 102290 43
2003-04-08 13:43 51°10.943 2°42.541 15.9 10 5.3 102290 45
2003-04-08 13:44 51°11.036 2°42.88 15.7 15 5.4 102290 45
2003-04-08 13:45 51°11.124 2°43.213 14.5 13 5.4 102280 43
2003-04-08 13:46 51°11.211 2°43.555 15.2 11 5.4 102300 43
2003-04-08 13:47 51°11.299 2°43.901 14.5 13 5.4 102280 45
2003-04-08 13:48 51°11.383 2°44.234 14.9 8 5.4 102280 48
2003-04-08 13:49 51°11.47 2°44.573 15 9 5.4 102280 44
2003-04-08 13:50 51°11.559 2°44.914 16 10 5.3 102280 41
2003-04-08 13:51 51°11.643 2°45.262 16.4 15 5.4 102280 51
2003-04-08 13:52 51°11.722 2°45.609 15.9 11 5.3 102270 47
2003-04-08 13:53 51°11.804 2°45.956 18.1 14 5.4 102270 46
2003-04-08 13:54 51°11.884 2°46.3 16.3 14 5.3 102260 45
2003-04-08 13:55 51°11.966 2°46.65 16.9 9 5.4 102270 51
2003-04-08 13:56 51°12.047 2°46.989 16.1 13 5.3 102260 45
2003-04-08 13:57 51°12.134 2°47.339 16.3 11 5.3 102260 48
2003-04-08 13:58 51°12.229 2°47.683 16.1 18 5.3 102260 43
2003-04-08 13:59 51°12.324 2°48.006 16.9 6 5.3 102260 46
2003-04-08 14:00 51°12.426 2°48.334 14.8 9 5.3 102250 46
2003-04-08 14:01 51°12.529 2°48.668 15.3 12 5.3 102250 45
2003-04-08 14:02 51°12.637 2°49.011 16.1 5 5.3 102260 47
2003-04-08 14:03 51°12.737 2°49.347 15.6 15 5.3 102260 47
2003-04-08 14:04 51°12.83 2°49.68 15.8 14 5.3 102240 47
2003-04-08 14:05 51°12.924 2°50.013 16.4 16 5.3 102240 46
2003-04-08 14:06 51°13.02 2°50.362 15.7 11 5.3 102240 52
2003-04-08 14:07 51°13.122 2°50.699 18.3 7 5.3 102260 46
2003-04-08 14:08 51°13.224 2°51.03 17 8 5.3 102250 50
2003-04-08 14:09 51°13.326 2°51.363 15.8 3 5.3 102260 46
2003-04-08 14:10 51°13.428 2°51.696 15.9 8 5.3 102260 48
2003-04-08 14:11 51°13.53 2°52.032 17.2 11 5.3 102250 48
2003-04-08 14:12 51°13.631 2°52.366 16.5 6 5.3 102250 47
2003-04-08 14:13 51°13.758 2°52.622 13.1 360 5.3 102260 51
2003-04-08 14:14 51°13.829 2°52.74 11 4 5.2 102270 43
2003-04-08 14:15 51°13.868 2°52.83 12.5 7 5.2 102270 44
2003-04-08 14:16 51°13.902 2°52.91 11.4 6 5.2 102270 48
2003-04-08 14:17 51°13.952 2°53.033 14.4 7 5.2 102260 44
2003-04-08 14:18 51°14.08 2°53.289 15   5.2 102240 45
2003-04-08 14:19 51°14.208 2°53.572 16.6 1 5.2 102250 46
2003-04-08 14:20 51°14.328 2°53.869 17 9 5.2 102240 43
2003-04-08 14:21 51°14.418 2°54.192 14.4 23 5.2 102230 46
2003-04-08 14:22 51°14.445 2°54.53 15.1 25 5.3 102230 45
2003-04-08 14:23 51°14.418 2°54.867 12.9 40 5.3 102220 45